Latest Weather Observations for Ferny Creek

IDV60801

Issued at 11:02 pm EDT Friday 19 December 2014 (issued every 30 minutes, with the page automatically refreshed every 10 minutes)

About weather observations | Map of weather stations | Latest weather observations for VIC | Other Formats
Station Details ID: 086266 Name: FERNY CREEK Lat: -37.87 Lon: 145.35 Height: 512.9 m
Data from the previous 72 hours. | See also: Recent months at Ferny Creek
Date/Time
EDT
Temp
°C
App
Temp
°C
Dew
Point
Rel
Hum
%
Delta-T
°C
Wind Press
QNH
hPa
Press
MSL
hPa
Rain
since 9 am
mm
Dir
 
Spd
km/h
Gust
km/h
Spd
kts
Gust
kts
19/11:00pm 8.8 7.6 6.3 84 1.2 ESE 2 7 1 4 1020.0 1019.0 0.0
19/10:30pm 8.9 7.6 6.2 83 1.3 ESE 2 6 1 3 1020.1 1019.1 0.0
19/10:00pm 8.9 7.6 5.8 81 1.5 ESE 2 4 1 2 1020.0 1019.0 0.0
19/09:30pm 9.4 8.0 5.6 77 1.8 SE 2 13 1 7 1019.9 1018.9 0.0
19/09:00pm 9.8 8.0 5.6 75 2.0 ESE 4 7 2 4 1019.8 1018.8 0.0
19/08:30pm 10.7 9.0 5.9 72 2.3 ESE 4 7 2 4 1019.9 1018.9 0.0
19/08:00pm 11.3 9.4 6.6 73 2.3 ESE 6 11 3 6 1019.6 1018.6 0.0
19/07:30pm 11.5 9.5 6.4 71 2.5 ESE 6 13 3 7 1019.2 1018.2 0.0
19/07:00pm 12.4 10.4 6.9 69 2.7 SE 7 15 4 8 1018.7 1017.7 0.0
19/06:30pm 13.4 11.9 6.7 64 3.3 SSW 4 9 2 5 1018.4 1017.4 0.0
19/06:00pm 15.0 12.3 5.5 53 4.6 SW 9 19 5 10 1018.0 1017.0 0.0
19/05:30pm 15.5 12.8 5.4 51 4.9 SW 9 17 5 9 1017.9 1016.9 0.0
19/05:00pm 14.6 12.2 5.4 54 4.5 W 7 19 4 10 1018.1 1017.1 0.0
19/04:30pm 16.4 14.4 7.1 54 4.7 WSW 7 19 4 10 1017.9 1016.9 0.0
19/04:00pm 16.0 14.0 7.0 55 4.6 WSW 7 19 4 10 1017.9 1016.9 0.0
19/03:30pm 14.6 11.8 5.1 53 4.6 SW 9 19 5 10 1017.8 1016.8 0.0
19/03:00pm 15.3 12.9 6.8 57 4.3 SW 9 19 5 10 1017.8 1016.8 0.0
19/02:30pm 15.1 13.4 5.9 54 4.5 NW 4 7 2 4 1017.8 1016.8 0.0
19/02:00pm 13.8 11.6 5.4 57 4.1 SSW 6 17 3 9 1017.7 1016.7 0.0
19/01:30pm 13.4 11.3 5.6 59 3.8 W 6 11 3 6 1017.8 1016.8 0.0
19/01:00pm 12.9 10.6 5.8 62 3.4 WSW 7 20 4 11 1017.9 1016.9 0.0
19/12:30pm 14.4 12.6 7.9 65 3.3 W 7 17 4 9 1017.8 1016.8 0.0
19/12:00pm 13.2 10.8 7.2 67 3.0 WSW 9 17 5 9 1017.6 1016.6 0.0
19/11:30am 13.8 12.3 9.0 73 2.5 WSW 7 13 4 7 1017.4 1016.3 0.0
19/11:00am 11.7 10.6 8.4 80 1.7 SSW 4 13 2 7 1017.3 1016.2 0.0
19/10:30am 9.8 8.0 7.1 83 1.3 SW 6 13 3 7 1017.4 1016.3 0.0
19/10:00am 11.4 9.8 7.9 79 1.8 W 6 11 3 6 1016.9 1015.8 0.0
19/09:30am 11.6 9.7 7.5 76 2.0 W 7 17 4 9 1016.5 1015.5 0.0
19/09:00am 11.2 9.8 8.8 85 1.2 SW 6 11 3 6 1016.2 1015.2 7.2
19/08:30am 10.0 9.3 8.4 90 0.8 WNW 2 6 1 3 1016.0 1015.0 7.2
19/08:00am 9.7 8.9 8.1 90 0.8 WNW 2 6 1 3 1015.8 1014.8 7.2
19/07:30am 9.0 8.1 7.6 91 0.7 WNW 2 6 1 3 1015.4 1014.3 7.2
19/07:00am 8.8 7.5 7.7 93 0.5 W 4 9 2 5 1015.1 1014.0 7.2
19/06:30am 8.7 7.8 7.8 94 0.4 W 2 6 1 3 1014.9 1013.8 7.2
19/06:00am 8.1 7.5 7.2 94 0.4 CALM 0 2 0 1 1014.6 1013.6 7.2
19/05:30am 8.6 7.7 7.7 94 0.4 WNW 2 4 1 2 1014.3 1013.3 7.2
19/05:00am 8.7 7.8 7.6 93 0.5 W 2 4 1 2 1014.0 1012.9 7.2
19/04:30am 8.6 7.2 7.2 91 0.7 WNW 4 7 2 4 1013.8 1012.7 7.2
19/04:00am 8.3 7.2 7.1 92 0.6 W 2 4 1 2 1013.4 1012.3 7.0
19/03:30am 8.1 7.0 6.7 91 0.7 WNW 2 6 1 3 1013.3 1012.2 7.0
19/03:00am 8.2 7.5 7.0 92 0.6 CALM 0 4 0 2 1013.3 1012.2 7.0
19/02:30am 7.6 6.4 6.4 92 0.6 W 2 7 1 4 1013.3 1012.2 7.0
19/02:00am 7.5 6.2 6.1 91 0.7 W 2 6 1 3 1013.3 1012.2 7.0
19/01:30am 8.0 6.4 6.3 89 0.8 W 4 11 2 6 1013.4 1012.3 7.0
19/01:00am 8.0 6.4 6.3 89 0.8 W 4 9 2 5 1013.4 1012.3 7.0
19/12:30am 8.3 7.6 7.1 92 0.6 CALM 0 6 0 3 1013.3 1012.2 7.0
19/12:00am 8.8 7.9 7.6 92 0.6 W 2 4 1 2 1013.4 1012.3 7.0
 
Date/Time
EDT
Temp
°C
App
Temp
°C
Dew
Point
Rel
Hum
%
Delta-T
°C
Wind Press
QNH
hPa
Press
MSL
hPa
Rain
since 9 am
mm
Dir
 
Spd
km/h
Gust
km/h
Spd
kts
Gust
kts
18/11:30pm 9.3 8.1 7.9 91 0.7 W 4 9 2 5 1013.2 1012.1 7.0
18/11:00pm 9.7 8.6 8.3 91 0.7 W 4 11 2 6 1013.3 1012.2 7.0
18/10:30pm 9.9 8.5 8.8 93 0.6 WSW 6 17 3 9 1013.1 1012.0 7.0
18/10:00pm 10.1 9.6 9.2 94 0.5 W 2 6 1 3 1012.8 1011.7 6.8
18/09:30pm 9.7 9.0 8.6 93 0.6 WNW 2 6 1 3 1012.5 1011.5 6.8
18/09:00pm 9.8 9.5 8.7 93 0.6 CALM 0 4 0 2 1012.2 1011.1 6.8
18/08:30pm 10.0 8.9 8.4 90 0.8 WSW 4 9 2 5 1011.9 1010.8 6.8
18/08:00pm 10.4 9.9 9.2 92 0.6 W 2 7 1 4 1011.7 1010.6 6.8
18/07:30pm 11.1 10.0 10.0 93 0.6 SW 6 9 3 5 1011.3 1010.2 6.2
18/07:00pm 11.4 10.7 10.0 91 0.7 WSW 4 11 2 6 1010.8 1009.7 5.2
18/06:30pm 11.3 10.0 10.0 92 0.7 WSW 7 13 4 7 1010.0 1008.9 5.2
18/06:00pm 10.5 8.7 9.6 94 0.5 WSW 9 20 5 11 1009.5 1008.4 5.0
18/05:30pm 10.9 9.6 10.1 95 0.4 W 7 17 4 9 1009.9 1008.8 3.0
18/05:00pm 11.0 9.7 10.1 94 0.5 WSW 7 28 4 15 1009.5 1008.4 0.6
18/04:30pm 11.4 9.4 10.1 92 0.7 WSW 11 24 6 13 1009.0 1007.8 0.2
18/04:00pm 14.1 10.9 9.9 76 2.2 WSW 17 46 9 25 1008.0 1006.9 0.0
18/03:57pm 14.6 11.5 9.0 69 2.9 WSW 15 46 8 25 1007.9 1006.8 0.0
18/03:30pm 19.7 17.7 6.4 42 6.8 WSW 6 11 3 6 1006.8 1005.6 0.0
18/03:00pm 20.1 18.4 7.5 44 6.6 W 6 15 3 8 1006.9 1005.7 0.0
18/02:30pm 19.4 16.9 4.7 38 7.3 W 7 13 4 7 1006.3 1005.2 0.0
18/02:00pm 19.3 17.6 8.3 49 5.9 WSW 7 17 4 9 1006.7 1005.5 0.0
18/01:30pm 17.7 15.7 7.2 50 5.4 WSW 7 13 4 7 1007.0 1005.8 0.0
18/01:00pm 18.0 16.0 7.1 49 5.6 WSW 7 17 4 9 1007.0 1005.8 0.0
18/12:30pm 17.5 15.4 8.1 54 4.9 WSW 9 19 5 10 1006.9 1005.7 0.0
18/12:00pm 19.0 16.4 9.5 54 5.2 SW 13 24 7 13 1006.8 1005.6 0.0
18/11:30am 21.2 18.7 6.7 39 7.6 W 9 19 5 10 1006.3 1005.2 0.0
18/11:00am 19.7 17.4 5.7 40 7.1 WNW 7 19 4 10 1006.3 1005.2 0.0
18/10:30am 18.9 17.2 7.4 47 6.0 WNW 6 15 3 8 1006.5 1005.3 0.0
18/10:00am 17.7 15.2 6.6 48 5.7 NW 9 22 5 12 1006.7 1005.5 0.0
18/09:30am 17.3 14.8 8.4 56 4.7 NW 11 20 6 11 1006.6 1005.4 0.0
18/09:00am 16.3 13.7 5.9 50 5.2 NW 9 17 5 9 1006.6 1005.4 0.0
18/08:30am 17.2 15.0 5.5 46 5.8 NNW 6 13 3 7 1006.2 1005.1 0.0
18/08:00am 16.0 13.5 3.8 44 5.8 N 6 15 3 8 1006.0 1004.9 0.0
18/07:30am 15.9 14.0 4.9 48 5.3 N 4 13 2 7 1006.1 1005.0 0.0
18/07:00am 14.8 12.6 3.6 47 5.3 NNW 4 9 2 5 1006.0 1004.9 0.0
18/06:30am 13.3 11.6 4.2 54 4.3 NNW 2 6 1 3 1006.0 1004.9 0.0
18/06:00am 12.0 9.9 4.0 58 3.7 NW 4 9 2 5 1005.9 1004.8 0.0
18/05:30am 10.7 8.5 5.5 70 2.5 NW 6 7 3 4 1005.9 1004.8 0.0
18/05:00am 10.3 8.0 5.7 73 2.2 NW 7 11 4 6 1005.8 1004.7 0.0
18/04:30am 10.0 7.9 5.6 74 2.1 NW 6 11 3 6 1005.7 1004.6 0.0
18/04:00am 10.0 7.9 5.6 74 2.1 NW 6 11 3 6 1005.7 1004.6 0.0
18/03:30am 10.1 7.8 5.9 75 2.0 NW 7 11 4 6 1005.7 1004.6 0.0
18/03:00am 10.4 8.2 6.0 74 2.1 NW 7 11 4 6 1005.9 1004.8 0.0
18/02:30am 11.3 9.6 6.0 70 2.5 NW 4 6 2 3 1005.8 1004.7 0.0
18/02:00am 10.7 9.4 6.1 73 2.2 NNW 2 4 1 2 1006.0 1004.9 0.0
18/01:30am 10.4 8.8 6.2 75 2.0 NW 4 6 2 3 1006.3 1005.2 0.0
18/01:00am 10.6 8.9 6.0 73 2.2 NE 4 6 2 3 1006.5 1005.3 0.0
18/12:30am 10.6 8.9 6.0 73 2.2 ENE 4 6 2 3 1006.9 1005.7 0.0
18/12:00am 10.0 7.8 5.4 73 2.2 E 6 9 3 5 1007.3 1006.2 0.0
 
Date/Time
EDT
Temp
°C
App
Temp
°C
Dew
Point
Rel
Hum
%
Delta-T
°C
Wind Press
QNH
hPa
Press
MSL
hPa
Rain
since 9 am
mm
Dir
 
Spd
km/h
Gust
km/h
Spd
kts
Gust
kts
17/11:30pm 10.1 7.7 5.3 72 2.2 E 7 9 4 5 1007.8 1006.7 0.0
17/11:00pm 10.3 8.0 5.7 73 2.2 E 7 11 4 6 1008.1 1007.0 0.0
17/10:30pm 10.5 7.8 5.7 72 2.3 E 9 17 5 9 1008.3 1007.2 0.0
17/10:00pm 10.5 8.2 5.7 72 2.3 ESE 7 13 4 7 1008.7 1007.5 0.0
17/09:30pm 10.8 8.1 5.8 71 2.4 ESE 9 17 5 9 1008.8 1007.6 0.0
17/09:00pm 11.4 9.1 5.9 69 2.6 ESE 7 13 4 7 1008.8 1007.6 0.0
17/08:30pm 12.0 10.0 6.1 67 2.9 ESE 6 11 3 6 1008.8 1007.6 0.0
17/08:00pm 12.8 10.8 6.2 64 3.2 ESE 6 13 3 7 1008.7 1007.5 0.0
17/07:30pm 13.5 11.5 6.1 61 3.6 ESE 6 13 3 7 1008.4 1007.3 0.0
17/07:00pm 14.3 12.3 6.2 58 4.0 ESE 6 9 3 5 1008.2 1007.1 0.0
17/06:30pm 15.0 12.9 5.8 54 4.5 SE 6 9 3 5 1008.2 1007.1 0.0
17/06:00pm 15.8 13.6 6.0 52 4.9 SE 7 20 4 11 1008.0 1006.9 0.0
17/05:30pm 16.6 13.8 3.0 40 6.4 SSE 7 13 4 7 1008.0 1006.9 0.0
17/05:00pm 17.4 15.5 5.0 44 6.1 S 4 13 2 7 1008.1 1007.0 0.0
17/04:30pm 16.3 13.5 3.4 42 6.1 ESE 7 11 4 6 1008.4 1007.3 0.0
17/04:00pm 16.8 14.5 4.8 45 5.9 SSW 6 13 3 7 1008.6 1007.4 0.0
17/03:30pm 15.6 13.1 4.0 46 5.5 S 6 13 3 7 1009.0 1007.8 0.0
17/03:00pm 16.4 14.0 4.1 44 5.9 SW 6 13 3 7 1009.1 1008.0 0.0
17/02:30pm 15.7 13.3 4.1 46 5.5 WNW 6 13 3 7 1009.3 1008.2 0.0
17/02:00pm 15.4 13.0 4.2 47 5.4 WNW 6 15 3 8 1009.4 1008.3 0.0
17/01:30pm 15.0 11.5 1.5 40 6.1 WSW 9 19 5 10 1009.7 1008.6 0.0
17/01:00pm 16.0 13.6 4.1 45 5.7 WSW 6 11 3 6 1009.8 1008.7 0.0
17/12:30pm 14.2 10.6 0.5 39 6.0 W 9 17 5 9 1009.9 1008.8 0.0
17/12:00pm 14.7 12.1 4.1 49 5.0 WSW 7 20 4 11 1009.7 1008.6 0.0
17/11:30am 13.7 11.2 3.8 51 4.6 WNW 6 15 3 8 1009.6 1008.5 0.0
17/11:00am 13.6 10.7 4.5 54 4.3 WSW 9 19 5 10 1009.5 1008.4 0.0
17/10:30am 12.3 10.1 5.2 62 3.4 WSW 6 13 3 7 1009.6 1008.5 0.0
17/10:00am 12.9 11.5 7.1 68 2.9 WSW 4 7 2 4 1009.5 1008.4 0.0
17/09:30am 11.1 9.2 6.5 73 2.2 WSW 6 9 3 5 1009.4 1008.3 0.0
17/09:00am 11.2 10.0 7.9 80 1.7 WNW 4 9 2 5 1009.0 1007.8 0.0
17/08:30am 10.1 8.2 6.6 79 1.7 NW 6 11 3 6 1008.7 1007.5 0.0
17/08:00am 9.4 7.3 6.7 83 1.3 NW 7 13 4 7 1008.2 1007.1 0.0
17/07:30am 8.5 6.3 6.0 84 1.2 NW 7 13 4 7 1008.2 1007.1 0.0
17/07:00am 8.4 6.4 6.2 86 1.0 NW 6 11 3 6 1007.8 1006.7 0.0
17/06:30am 8.1 6.4 6.1 87 0.9 WNW 4 9 2 5 1007.4 1006.3 0.0
17/06:00am 7.7 6.4 6.2 90 0.7 NW 2 6 1 3 1006.9 1005.7 0.0
17/05:30am 7.3 5.6 5.8 90 0.7 WNW 4 9 2 5 1006.7 1005.5 0.0
17/05:00am 7.4 6.1 5.9 90 0.7 WNW 2 4 1 2 1006.5 1005.3 0.0
17/04:30am 7.7 6.3 5.7 87 0.9 WNW 2 6 1 3 1006.0 1004.9 0.0
17/04:00am 7.4 6.0 5.4 87 0.9 WNW 2 6 1 3 1005.9 1004.8 0.0
17/03:30am 7.8 6.4 5.3 84 1.1 W 2 6 1 3 1005.8 1004.7 0.0
17/03:00am 8.9 7.5 5.6 80 1.5 WNW 2 6 1 3 1005.7 1004.6 0.0
17/02:30am 8.9 7.5 5.5 79 1.6 NW 2 9 1 5 1005.7 1004.6 0.0
17/02:00am 8.7 7.2 4.9 77 1.8 WNW 2 6 1 3 1005.6 1004.5 0.0
17/01:30am 8.8 6.8 4.6 75 1.9 W 4 11 2 6 1005.5 1004.3 0.0
17/01:00am 9.2 7.3 5.0 75 1.9 W 4 7 2 4 1005.4 1004.2 0.0
17/12:30am 9.6 7.7 5.0 73 2.1 W 4 13 2 7 1005.6 1004.5 0.0
17/12:00am 9.9 7.6 4.9 71 2.3 W 6 17 3 9 1005.6 1004.5 0.0
 
Date/Time
EDT
Temp
°C
App
Temp
°C
Dew
Point
Rel
Hum
%
Delta-T
°C
Wind Press
QNH
hPa
Press
MSL
hPa
Rain
since 9 am
mm
Dir
 
Spd
km/h
Gust
km/h
Spd
kts
Gust
kts
16/11:30pm 10.0 7.5 4.6 69 2.5 W 7 15 4 8 1005.7 1004.6 0.0

Other Formats:

Comma delimited format used in spreadsheet applications
http://www.bom.gov.au/fwo/IDV60801/IDV60801.94872.axf

JavaScript Object Notation format (JSON) in row-major order
http://www.bom.gov.au/fwo/IDV60801/IDV60801.94872.json